createdAt,value
2022-12-03T00:02:16.205Z,26.50
2022-12-03T00:04:44.762Z,25.40
2022-12-03T00:07:27.435Z,25.40
2022-12-03T00:09:55.853Z,22.30
2022-12-03T00:12:24.150Z,23.50
2022-12-03T00:14:52.978Z,27.90
2022-12-03T00:17:21.337Z,23.70
2022-12-03T00:19:50.431Z,22.40
2022-12-03T00:22:18.758Z,24.00
2022-12-03T00:24:47.220Z,24.40
2022-12-03T00:27:15.544Z,24.70
2022-12-03T00:29:43.905Z,24.90
2022-12-03T00:32:12.556Z,20.80
2022-12-03T00:34:41.026Z,24.40
2022-12-03T00:37:09.378Z,23.10
2022-12-03T00:39:37.650Z,22.80
2022-12-03T00:42:06.134Z,17.50
2022-12-03T00:44:34.452Z,21.60
2022-12-03T00:47:02.975Z,20.30
2022-12-03T00:49:31.438Z,20.80
2022-12-03T00:51:59.789Z,22.50
2022-12-03T00:54:31.867Z,20.60
2022-12-03T00:57:00.768Z,22.00
2022-12-03T00:59:29.173Z,20.60
2022-12-03T01:01:57.460Z,22.10
2022-12-03T01:04:26.183Z,22.30
2022-12-03T01:06:54.564Z,21.40
2022-12-03T01:09:22.965Z,22.30
2022-12-03T01:11:51.236Z,21.20
2022-12-03T01:14:20.519Z,22.50
2022-12-03T01:16:49.221Z,21.70
2022-12-03T01:19:19.712Z,20.80
2022-12-03T01:21:50.480Z,20.00
2022-12-03T01:24:19.745Z,18.40
2022-12-03T01:26:48.207Z,14.50
2022-12-03T01:29:16.563Z,19.90
2022-12-03T01:32:03.544Z,19.40
2022-12-03T01:34:32.005Z,17.50
2022-12-03T01:37:00.343Z,18.60
2022-12-03T01:39:28.581Z,21.10
2022-12-03T01:41:59.089Z,20.90
2022-12-03T01:44:33.086Z,20.30
2022-12-03T01:50:01.715Z,18.30
2022-12-03T01:52:34.828Z,16.70
2022-12-03T01:55:07.923Z,19.80
2022-12-03T01:57:46.281Z,19.50
2022-12-03T02:00:17.696Z,17.80
2022-12-03T02:02:48.589Z,18.70
2022-12-03T02:05:29.226Z,19.10
2022-12-03T02:08:34.957Z,17.40
2022-12-03T02:11:06.243Z,18.10
2022-12-03T02:13:34.977Z,22.10
2022-12-03T02:16:04.382Z,22.50
2022-12-03T02:18:32.981Z,17.90
2022-12-03T02:21:24.144Z,21.70
2022-12-03T02:23:52.416Z,21.10
2022-12-03T02:26:20.969Z,21.80
2022-12-03T02:28:49.475Z,19.50
2022-12-03T02:31:17.874Z,19.80
2022-12-03T02:33:46.221Z,18.70
2022-12-03T02:36:14.587Z,20.60
2022-12-03T02:38:45.723Z,18.80
2022-12-03T02:41:37.578Z,18.40
2022-12-03T02:44:07.495Z,20.80
2022-12-03T02:46:36.724Z,21.50
2022-12-03T02:49:06.469Z,16.30
2022-12-03T02:51:35.318Z,21.50
2022-12-03T02:54:04.306Z,18.30
2022-12-03T02:56:33.566Z,16.20
2022-12-03T02:59:05.488Z,19.30
2022-12-03T03:01:35.178Z,19.20
2022-12-03T03:04:04.766Z,21.70
2022-12-03T03:06:33.862Z,17.30
2022-12-03T03:09:21.192Z,16.20
2022-12-03T03:11:49.566Z,19.80
2022-12-03T03:14:17.918Z,20.80
2022-12-03T03:16:46.379Z,20.30
2022-12-03T03:19:14.817Z,18.10
2022-12-03T03:21:43.143Z,18.80
2022-12-03T03:24:11.430Z,20.50
2022-12-03T03:26:39.802Z,18.90
2022-12-03T03:29:08.179Z,17.50
2022-12-03T03:31:37.007Z,20.90
2022-12-03T03:34:05.631Z,18.70
2022-12-03T03:36:34.666Z,22.30
2022-12-03T03:39:05.513Z,18.60
2022-12-03T03:41:35.062Z,20.90
2022-12-03T03:44:06.468Z,19.30
2022-12-03T03:46:36.223Z,19.80
2022-12-03T03:49:06.200Z,21.20
2022-12-03T03:51:36.631Z,21.50
2022-12-03T03:54:06.198Z,22.30
2022-12-03T03:56:35.026Z,19.20
2022-12-03T03:59:04.189Z,23.80
2022-12-03T04:01:33.294Z,21.90
2022-12-03T04:04:02.318Z,24.00
2022-12-03T04:06:30.617Z,23.20
2022-12-03T04:09:00.150Z,20.90
2022-12-03T04:11:47.009Z,20.70
2022-12-03T04:14:15.400Z,21.20
2022-12-03T04:16:43.743Z,19.30
2022-12-03T04:19:12.191Z,20.40
2022-12-03T04:21:58.696Z,20.30
2022-12-03T04:24:27.076Z,18.60
2022-12-03T04:27:14.181Z,19.10
2022-12-03T04:29:42.478Z,18.50
2022-12-03T04:32:29.132Z,16.70
2022-12-03T04:35:15.985Z,18.60
2022-12-03T04:37:44.335Z,16.80
2022-12-03T04:40:31.779Z,17.70
2022-12-03T04:43:00.119Z,18.80
2022-12-03T04:45:28.442Z,16.30
2022-12-03T04:47:56.678Z,17.70
2022-12-03T04:50:25.081Z,18.70
2022-12-03T04:52:53.342Z,19.50
2022-12-03T04:55:21.619Z,17.20
2022-12-03T04:57:49.885Z,20.50
2022-12-03T05:00:18.510Z,17.10
2022-12-03T05:02:46.995Z,17.10
2022-12-03T05:05:15.646Z,17.00
2022-12-03T05:08:08.788Z,18.30
2022-12-03T05:10:37.165Z,18.50
2022-12-03T05:13:05.487Z,17.80
2022-12-03T05:15:33.759Z,15.30
2022-12-03T05:18:02.102Z,16.50
2022-12-03T05:20:43.853Z,18.10
2022-12-03T05:23:15.015Z,17.70
2022-12-03T05:25:43.386Z,19.50
2022-12-03T05:28:11.760Z,18.60
2022-12-03T05:30:40.197Z,19.00
2022-12-03T05:33:08.548Z,18.70
2022-12-03T05:35:36.818Z,19.40
2022-12-03T05:38:05.183Z,18.10
2022-12-03T05:40:33.539Z,20.00
2022-12-03T05:43:02.222Z,17.70
2022-12-03T05:45:36.179Z,21.50
2022-12-03T05:50:36.538Z,17.20
2022-12-03T05:53:05.064Z,21.50
2022-12-03T05:55:33.939Z,17.60
2022-12-03T05:58:02.307Z,19.30
2022-12-03T06:00:39.047Z,18.30
2022-12-03T06:03:11.120Z,23.00
2022-12-03T06:05:39.635Z,20.00
2022-12-03T06:08:08.121Z,19.00
2022-12-03T06:10:36.570Z,22.20
2022-12-03T06:13:04.880Z,18.60
2022-12-03T06:15:35.336Z,18.60
2022-12-03T06:18:07.182Z,18.50
2022-12-03T06:20:35.505Z,20.10
2022-12-03T06:23:03.861Z,21.90
2022-12-03T06:25:32.173Z,21.70
2022-12-03T06:28:00.591Z,15.80
2022-12-03T06:30:28.902Z,15.70
2022-12-03T06:32:57.203Z,17.40
2022-12-03T06:35:25.572Z,20.70
2022-12-03T06:37:53.895Z,18.60
2022-12-03T06:40:22.240Z,18.70
2022-12-03T06:42:50.527Z,16.30
2022-12-03T06:45:18.925Z,19.80
2022-12-03T06:47:47.264Z,21.30
2022-12-03T06:50:15.672Z,18.40
2022-12-03T06:52:43.911Z,21.00
2022-12-03T06:55:12.281Z,20.60
2022-12-03T06:57:40.562Z,21.20
2022-12-03T07:00:09.854Z,18.00
2022-12-03T07:02:38.281Z,19.50
2022-12-03T07:05:07.890Z,19.20
2022-12-03T07:07:36.374Z,17.80
2022-12-03T07:10:05.381Z,18.90
2022-12-03T07:12:34.490Z,17.70
2022-12-03T07:15:02.889Z,20.10
2022-12-03T07:17:31.306Z,20.30
2022-12-03T07:19:59.654Z,15.90
2022-12-03T07:22:27.969Z,18.20
2022-12-03T07:24:56.469Z,20.30
2022-12-03T07:27:25.142Z,18.80
2022-12-03T07:29:53.599Z,17.00
2022-12-03T07:32:35.626Z,20.50
2022-12-03T07:35:17.671Z,19.10
2022-12-03T07:38:00.216Z,18.30
2022-12-03T07:40:27.364Z,15.30
2022-12-03T07:42:54.422Z,20.40
2022-12-03T07:45:22.803Z,20.40
2022-12-03T07:48:04.883Z,16.20
2022-12-03T07:50:33.230Z,20.60
2022-12-03T07:53:01.568Z,20.70
2022-12-03T07:55:29.907Z,19.80
2022-12-03T07:57:58.335Z,20.50
2022-12-03T08:00:26.908Z,19.60
2022-12-03T08:02:55.322Z,18.50
2022-12-03T08:05:23.916Z,18.40
2022-12-03T08:07:52.277Z,21.30
2022-12-03T08:10:20.763Z,20.40
2022-12-03T08:12:49.122Z,22.30
2022-12-03T08:15:24.468Z,20.50
2022-12-03T08:17:59.036Z,18.60
2022-12-03T08:20:34.605Z,19.60
2022-12-03T08:23:07.343Z,21.50
2022-12-03T08:25:35.598Z,19.40
2022-12-03T08:28:13.684Z,18.90
2022-12-03T08:30:44.366Z,19.00
2022-12-03T08:33:28.286Z,18.70
2022-12-03T08:35:56.760Z,17.60
2022-12-03T08:38:25.299Z,19.30
2022-12-03T08:40:55.647Z,18.80
2022-12-03T08:43:26.124Z,19.80
2022-12-03T08:45:56.234Z,18.80
2022-12-03T08:48:33.277Z,19.40
2022-12-03T08:51:09.514Z,20.30
2022-12-03T08:53:47.978Z,21.30
2022-12-03T08:56:28.571Z,22.20
2022-12-03T08:59:03.277Z,21.30
2022-12-03T09:01:33.220Z,21.20
2022-12-03T09:04:31.068Z,19.70
2022-12-03T09:07:02.484Z,21.90
2022-12-03T09:09:31.294Z,24.70
2022-12-03T09:11:59.759Z,24.40
2022-12-03T09:14:29.282Z,23.40
2022-12-03T09:16:57.817Z,23.10
2022-12-03T09:19:27.839Z,20.00
2022-12-03T09:21:56.210Z,22.80
2022-12-03T09:24:24.658Z,21.30
2022-12-03T09:26:53.039Z,20.80
2022-12-03T09:29:21.410Z,21.10
2022-12-03T09:32:03.708Z,20.50
2022-12-03T09:34:30.800Z,19.90
2022-12-03T09:36:59.197Z,18.90
2022-12-03T09:39:27.799Z,24.90
2022-12-03T09:41:56.639Z,21.50
2022-12-03T09:44:25.056Z,23.20
2022-12-03T09:46:53.427Z,24.40
2022-12-03T09:49:22.028Z,24.80
2022-12-03T09:51:50.370Z,24.30
2022-12-03T09:54:24.843Z,25.10
2022-12-03T09:56:55.272Z,22.10
2022-12-03T09:59:27.683Z,23.40
2022-12-03T10:01:56.303Z,21.30
2022-12-03T10:04:25.347Z,24.10
2022-12-03T10:06:54.406Z,22.10
2022-12-03T10:09:26.022Z,24.30
2022-12-03T10:11:56.828Z,24.00
2022-12-03T10:14:25.495Z,22.90
2022-12-03T10:16:54.933Z,21.80
2022-12-03T10:19:27.895Z,22.30
2022-12-03T10:21:56.224Z,23.30
2022-12-03T10:24:36.434Z,24.10
2022-12-03T10:27:29.746Z,22.80
2022-12-03T10:30:02.985Z,25.60
2022-12-03T10:32:43.514Z,28.10
2022-12-03T10:35:15.547Z,23.60
2022-12-03T10:38:01.679Z,29.40
2022-12-03T10:40:31.541Z,23.70
2022-12-03T10:43:23.308Z,24.20
2022-12-03T10:46:11.993Z,23.30
2022-12-03T10:48:41.104Z,25.40
2022-12-03T10:51:22.529Z,24.40
2022-12-03T10:53:51.288Z,27.10
2022-12-03T10:56:26.545Z,24.80
2022-12-03T10:58:55.553Z,25.60
2022-12-03T11:01:25.857Z,25.40
2022-12-03T11:04:01.617Z,25.20
2022-12-03T11:06:32.064Z,25.30
2022-12-03T11:09:05.430Z,25.80
2022-12-03T11:11:36.818Z,25.30
2022-12-03T11:14:05.772Z,26.10
2022-12-03T11:16:39.928Z,26.60
2022-12-03T11:19:18.220Z,26.40
2022-12-03T11:22:05.228Z,26.90
2022-12-03T11:24:36.082Z,23.90
2022-12-03T11:27:04.260Z,27.80
2022-12-03T11:29:52.622Z,23.90
2022-12-03T11:32:38.608Z,25.30
2022-12-03T11:35:26.284Z,27.00
2022-12-03T11:37:54.773Z,26.00
2022-12-03T11:40:23.059Z,25.90
2022-12-03T11:42:51.439Z,24.50
2022-12-03T11:45:28.566Z,26.30
2022-12-03T11:47:59.595Z,25.70
2022-12-03T11:50:39.406Z,26.90
2022-12-03T11:53:17.834Z,25.40
2022-12-03T11:55:52.505Z,24.90
2022-12-03T11:58:30.144Z,25.60
2022-12-03T12:01:01.017Z,27.30
2022-12-03T12:03:33.950Z,26.50
2022-12-03T12:06:12.284Z,20.60
2022-12-03T12:09:04.129Z,26.20
2022-12-03T12:11:34.797Z,26.30
2022-12-03T12:14:05.007Z,27.90
2022-12-03T12:16:52.689Z,27.10
2022-12-03T12:19:31.571Z,28.90
2022-12-03T12:22:18.441Z,27.50
2022-12-03T12:25:27.189Z,26.00
2022-12-03T12:27:55.839Z,28.10
2022-12-03T12:30:24.361Z,27.30
2022-12-03T12:33:02.105Z,25.90
2022-12-03T12:35:33.072Z,26.30
2022-12-03T12:38:11.655Z,27.40
2022-12-03T12:40:44.931Z,27.50
2022-12-03T12:43:23.812Z,28.90
2022-12-03T12:45:55.318Z,31.00
2022-12-03T12:48:27.543Z,29.00
2022-12-03T12:51:02.138Z,30.60
2022-12-03T12:53:35.743Z,23.90
2022-12-03T12:56:27.474Z,29.30
2022-12-03T12:58:59.657Z,31.70
2022-12-03T13:01:32.487Z,29.90
2022-12-03T13:04:00.890Z,29.40
2022-12-03T13:06:31.482Z,29.50
2022-12-03T13:09:01.451Z,34.60
2022-12-03T13:11:37.450Z,32.10
2022-12-03T13:14:24.727Z,30.10
2022-12-03T13:16:56.400Z,31.90
2022-12-03T13:19:27.597Z,30.50
2022-12-03T13:21:58.397Z,29.40
2022-12-03T13:24:36.858Z,26.90
2022-12-03T13:27:14.101Z,34.70
2022-12-03T13:29:42.850Z,29.70
2022-12-03T13:32:19.295Z,26.40
2022-12-03T13:34:50.716Z,34.60
2022-12-03T13:37:28.527Z,31.90
2022-12-03T13:39:58.046Z,34.00
2022-12-03T13:42:39.939Z,32.10
2022-12-03T13:45:14.148Z,32.00
2022-12-03T13:47:43.730Z,37.40
2022-12-03T13:50:45.171Z,30.00
2022-12-03T13:53:13.406Z,34.20
2022-12-03T13:55:47.369Z,33.70
2022-12-03T14:00:44.129Z,29.90
2022-12-03T14:03:12.652Z,32.10
2022-12-03T14:05:41.009Z,31.70
2022-12-03T14:08:09.481Z,33.30
2022-12-03T14:10:37.881Z,30.60
2022-12-03T14:13:06.215Z,33.70
2022-12-03T14:15:34.521Z,33.20
2022-12-03T14:18:02.935Z,32.00
2022-12-03T14:20:31.276Z,34.50
2022-12-03T14:22:59.811Z,31.80
2022-12-03T14:25:28.531Z,32.20
2022-12-03T14:27:56.899Z,34.30
2022-12-03T14:30:25.202Z,35.90
2022-12-03T14:32:53.533Z,29.40
2022-12-03T14:35:21.891Z,31.60
2022-12-03T14:37:50.258Z,33.00
2022-12-03T14:40:21.740Z,31.30
2022-12-03T14:42:50.743Z,33.60
2022-12-03T14:45:20.569Z,32.80
2022-12-03T14:47:48.925Z,33.70
2022-12-03T14:50:18.676Z,33.90
2022-12-03T14:52:47.217Z,33.30
2022-12-03T14:55:15.518Z,32.00
2022-12-03T14:57:44.029Z,31.00
2022-12-03T15:00:13.129Z,32.00
2022-12-03T15:02:41.619Z,34.40
2022-12-03T15:05:10.484Z,33.90
2022-12-03T15:07:40.911Z,34.70
2022-12-03T15:10:09.693Z,32.00
2022-12-03T15:12:38.038Z,34.00
2022-12-03T15:15:07.015Z,32.70
2022-12-03T15:17:35.397Z,33.60
2022-12-03T15:20:04.426Z,37.40
2022-12-03T15:22:32.831Z,83.00
2022-12-03T15:25:02.955Z,42.00
2022-12-03T15:27:31.449Z,34.80
2022-12-03T15:29:59.813Z,32.90
2022-12-03T15:32:28.588Z,34.20
2022-12-03T15:34:57.833Z,34.20
2022-12-03T15:37:28.325Z,32.20
2022-12-03T15:39:57.386Z,33.10
2022-12-03T15:42:26.147Z,36.20
2022-12-03T15:44:54.492Z,41.80
2022-12-03T15:47:24.030Z,37.20
2022-12-03T15:49:53.459Z,41.30
2022-12-03T15:52:22.281Z,39.20
2022-12-03T15:54:50.750Z,33.60
2022-12-03T15:57:19.409Z,35.40
2022-12-03T15:59:47.725Z,34.60
2022-12-03T16:02:16.686Z,34.20
2022-12-03T16:04:45.980Z,36.80
2022-12-03T16:07:17.663Z,33.20
2022-12-03T16:09:47.071Z,36.70
2022-12-03T16:12:16.007Z,36.10
2022-12-03T16:14:44.664Z,31.20
2022-12-03T16:17:14.093Z,37.00
2022-12-03T16:19:43.198Z,32.80
2022-12-03T16:22:12.959Z,34.70
2022-12-03T16:24:41.339Z,34.50
2022-12-03T16:27:09.769Z,34.80
2022-12-03T16:29:39.093Z,36.30
2022-12-03T16:32:10.286Z,33.00
2022-12-03T16:34:38.948Z,33.80
2022-12-03T16:37:09.061Z,35.10
2022-12-03T16:39:38.039Z,34.90
2022-12-03T16:42:10.418Z,33.50
2022-12-03T16:45:04.834Z,32.60
2022-12-03T16:47:34.767Z,31.20
2022-12-03T16:50:09.128Z,33.20
2022-12-03T16:52:38.689Z,32.50
2022-12-03T16:55:07.863Z,36.20
2022-12-03T16:57:37.275Z,37.80
2022-12-03T17:00:07.021Z,39.10
2022-12-03T17:02:35.677Z,36.00
2022-12-03T17:05:05.271Z,36.60
2022-12-03T17:07:33.711Z,35.50
2022-12-03T17:10:02.710Z,36.60
2022-12-03T17:13:00.768Z,35.90
2022-12-03T17:15:19.462Z,32.70
2022-12-03T17:17:47.875Z,36.20
2022-12-03T17:20:17.751Z,34.40
2022-12-03T17:22:46.099Z,34.10
2022-12-03T17:25:14.438Z,35.70
2022-12-03T17:27:45.578Z,36.80
2022-12-03T17:30:15.047Z,39.00
2022-12-03T17:32:43.746Z,36.20
2022-12-03T17:35:12.504Z,34.80
2022-12-03T17:37:40.893Z,34.90
2022-12-03T17:40:13.849Z,34.90
2022-12-03T17:42:42.263Z,39.20
2022-12-03T17:45:11.249Z,35.10
2022-12-03T17:47:40.364Z,34.20
2022-12-03T17:50:09.214Z,33.00
2022-12-03T17:52:37.503Z,35.60
2022-12-03T17:55:12.889Z,35.60
2022-12-03T17:57:45.928Z,33.70
2022-12-03T18:00:14.536Z,35.30
2022-12-03T18:02:43.403Z,39.00
2022-12-03T18:05:12.234Z,37.00
2022-12-03T18:07:40.851Z,32.10
2022-12-03T18:10:09.818Z,38.30
2022-12-03T18:12:38.604Z,37.80
2022-12-03T18:15:08.268Z,34.00
2022-12-03T18:17:37.460Z,37.50
2022-12-03T18:20:08.103Z,39.20
2022-12-03T18:22:37.007Z,36.70
2022-12-03T18:25:06.920Z,39.80
2022-12-03T18:27:36.091Z,37.40
2022-12-03T18:30:05.619Z,38.80
2022-12-03T18:32:34.479Z,30.70
2022-12-03T18:35:04.702Z,35.10
2022-12-03T18:37:34.572Z,36.70
2022-12-03T18:40:13.139Z,35.50
2022-12-03T18:42:42.369Z,36.40
2022-12-03T18:45:13.258Z,39.70
2022-12-03T18:47:42.779Z,37.80
2022-12-03T18:50:13.588Z,39.40
2022-12-03T18:52:42.764Z,38.50
2022-12-03T18:55:18.584Z,38.20
2022-12-03T18:57:49.225Z,39.60
2022-12-03T19:00:19.149Z,38.80
2022-12-03T19:03:03.755Z,23.40
2022-12-03T19:05:35.745Z,39.00
2022-12-03T19:08:13.270Z,39.50
2022-12-03T19:10:46.603Z,36.90
2022-12-03T19:13:17.070Z,30.60
2022-12-03T19:15:47.340Z,38.70
2022-12-03T19:18:16.414Z,37.50
2022-12-03T19:20:46.037Z,35.30
2022-12-03T19:23:15.012Z,36.10
2022-12-03T19:25:55.777Z,37.00
2022-12-03T19:28:27.296Z,39.20
2022-12-03T19:31:17.978Z,37.20
2022-12-03T19:33:47.930Z,37.90
2022-12-03T19:36:24.867Z,41.80
2022-12-03T19:39:01.469Z,38.80
2022-12-03T19:41:34.270Z,38.10
2022-12-03T19:44:09.268Z,38.50
2022-12-03T19:46:40.181Z,37.10
2022-12-03T19:49:12.991Z,37.10
2022-12-03T19:51:44.600Z,37.90
2022-12-03T19:54:17.165Z,42.40
2022-12-03T19:56:50.559Z,36.10
2022-12-03T19:59:22.421Z,39.90
2022-12-03T20:01:53.858Z,39.10
2022-12-03T20:04:23.190Z,37.70
2022-12-03T20:06:52.282Z,41.70
2022-12-03T20:09:22.862Z,40.60
2022-12-03T20:12:01.571Z,37.70
2022-12-03T20:14:34.661Z,41.80
2022-12-03T20:17:04.444Z,35.00
2022-12-03T20:19:33.928Z,41.70
2022-12-03T20:22:03.219Z,38.70
2022-12-03T20:24:32.967Z,39.80
2022-12-03T20:27:02.337Z,30.40
2022-12-03T20:29:32.880Z,38.80
2022-12-03T20:32:06.201Z,38.40
2022-12-03T20:34:36.876Z,39.90
2022-12-03T20:37:07.136Z,40.60
2022-12-03T20:39:36.798Z,40.40
2022-12-03T20:42:06.299Z,39.90
2022-12-03T20:44:40.274Z,40.40
2022-12-03T20:47:09.375Z,36.70
2022-12-03T20:49:39.935Z,38.60
2022-12-03T20:52:10.255Z,38.10
2022-12-03T20:54:39.398Z,38.00
2022-12-03T20:57:08.244Z,37.30
2022-12-03T20:59:37.919Z,36.60
2022-12-03T21:02:07.192Z,40.90
2022-12-03T21:04:36.707Z,39.60
2022-12-03T21:07:05.485Z,38.90
2022-12-03T21:09:34.444Z,40.10
2022-12-03T21:12:02.926Z,39.40
2022-12-03T21:14:31.296Z,34.30
2022-12-03T21:17:08.433Z,38.70
2022-12-03T21:19:38.724Z,36.90
2022-12-03T21:22:08.765Z,38.20
2022-12-03T21:24:44.456Z,38.20
2022-12-03T21:27:21.191Z,34.00
2022-12-03T21:29:51.837Z,38.20
2022-12-03T21:32:20.910Z,38.40
2022-12-03T21:34:49.179Z,37.60
2022-12-03T21:37:17.962Z,35.60
2022-12-03T21:39:46.332Z,32.20
2022-12-03T21:42:36.106Z,39.00
2022-12-03T21:45:04.056Z,36.80
2022-12-03T21:47:37.314Z,36.30
2022-12-03T21:50:09.751Z,37.90
2022-12-03T21:52:38.293Z,38.30
2022-12-03T21:55:06.988Z,36.10
2022-12-03T21:57:36.927Z,40.70
2022-12-03T22:00:09.745Z,35.80
2022-12-03T22:02:40.527Z,37.50
2022-12-03T22:05:11.488Z,35.80
2022-12-03T22:07:41.007Z,36.90
2022-12-03T22:10:11.666Z,37.70
2022-12-03T22:12:42.241Z,37.60
2022-12-03T22:15:16.724Z,37.20
2022-12-03T22:17:47.888Z,34.00
2022-12-03T22:20:16.526Z,36.50
2022-12-03T22:22:45.198Z,36.70
2022-12-03T22:25:14.144Z,35.90
2022-12-03T22:27:42.568Z,37.70
2022-12-03T22:30:11.225Z,32.90
2022-12-03T22:32:39.699Z,36.80
2022-12-03T22:35:08.525Z,29.50
2022-12-03T22:37:37.042Z,34.10
2022-12-03T22:40:06.601Z,35.40
2022-12-03T22:42:34.984Z,35.60
2022-12-03T22:45:04.134Z,34.60
2022-12-03T22:47:32.466Z,32.90
2022-12-03T22:50:00.783Z,35.10
2022-12-03T22:52:30.344Z,32.50
2022-12-03T22:54:58.648Z,34.80
2022-12-03T22:57:27.032Z,33.60
2022-12-03T22:59:55.613Z,35.10
2022-12-03T23:02:24.313Z,34.60
2022-12-03T23:04:56.032Z,34.40
2022-12-03T23:07:24.320Z,35.60
2022-12-03T23:09:52.973Z,35.10
